Time;durP1;ratioP1;P1;durP2;ratioP2;P2;SDS_P1;SDS_P2;PMS_P1;PMS_P2;Temp;Humidity;BMP_temperature;BMP_pressure;BME280_temperature;BME280_humidity;BME280_pressure;Samples;Min_cycle;Max_cycle;Signal;HPM_P1;HPM_P2
2022/03/02 00:00:01;;;;;;;0.60;0.60;;;;;;;0.52;49.83;97617.91;29373;204;63009;-63
2022/03/02 00:00:33;;;;;;;0.60;0.60;;;;;;;0.50;50.18;97619.97;29373;216;63005;-64
2022/03/02 00:01:04;;;;;;;0.60;0.60;;;;;;;0.50;50.08;97613.81;29373;203;63009;-68
2022/03/02 00:01:36;;;;;;;0.70;0.70;;;;;;;0.51;50.10;97618.94;29371;266;64005;-66
2022/03/02 00:02:08;;;;;;;0.60;0.60;;;;;;;0.52;50.01;97617.91;29373;242;63009;-67
2022/03/02 00:02:43;;;;;;;0.57;0.57;;;;;;;0.53;50.15;97618.72;29373;196;63005;-64
2022/03/02 00:03:14;;;;;;;0.60;0.60;;;;;;;0.56;50.02;97624.47;29371;312;64009;-63
2022/03/02 00:03:45;;;;;;;0.60;0.60;;;;;;;0.57;49.99;97620.75;29373;205;63004;-64
2022/03/02 00:04:17;;;;;;;0.60;0.60;;;;;;;0.57;49.88;97622.59;29373;386;63009;-64
2022/03/02 00:04:48;;;;;;;0.60;0.60;;;;;;;0.57;49.79;97620.75;29373;335;63007;-64
2022/03/02 00:05:24;;;;;;;0.62;0.62;;;;;;;0.57;49.69;97620.75;29373;305;63013;-64
2022/03/02 00:05:55;;;;;;;0.70;0.70;;;;;;;0.57;50.01;97625.28;29373;237;63008;-64
2022/03/02 00:06:27;;;;;;;0.60;0.60;;;;;;;0.57;49.70;97625.28;29373;225;63008;-63
2022/03/02 00:07:01;;;;;;;0.60;0.60;;;;;;;0.54;50.04;97623.84;29373;222;63004;-67
2022/03/02 00:07:32;;;;;;;7.20;6.93;;;;;;;0.53;49.95;97627.56;29373;316;63009;-62
2022/03/02 00:08:06;;;;;;;0.70;0.70;;;;;;;0.55;50.07;97638.03;29373;292;63005;-64
2022/03/02 00:08:37;;;;;;;0.60;0.60;;;;;;;0.54;49.92;97631.03;29371;207;64009;-65
2022/03/02 00:09:09;;;;;;;0.60;0.60;;;;;;;0.52;50.15;97633.91;29373;359;63005;-67
2022/03/02 00:09:41;;;;;;;0.60;0.60;;;;;;;0.52;49.93;97633.91;29373;286;63009;-63
2022/03/02 00:10:12;;;;;;;0.60;0.60;;;;;;;0.54;49.99;97641.72;29373;251;63005;-65
2022/03/02 00:10:44;;;;;;;0.60;0.60;;;;;;;0.54;50.09;97631.03;29372;221;63009;-63
2022/03/02 00:11:19;;;;;;;0.60;0.60;;;;;;;0.53;50.24;97632.06;29373;309;63004;-64
2022/03/02 00:11:50;;;;;;;0.60;0.60;;;;;;;0.52;50.19;97639.25;29373;257;63009;-66
2022/03/02 00:12:21;;;;;;;0.60;0.60;;;;;;;0.53;50.04;97640.09;29373;239;63004;-64
2022/03/02 00:12:54;;;;;;;0.70;0.70;;;;;;;0.50;50.16;97638.66;29373;229;63017;-63
2022/03/02 00:13:25;;;;;;;0.60;0.60;;;;;;;0.50;50.29;97633.31;29372;198;64004;-65
2022/03/02 00:14:02;;;;;;;0.60;0.60;;;;;;;0.48;50.31;97630.03;29373;231;63008;-63
2022/03/02 00:14:34;;;;;;;0.60;0.60;;;;;;;0.47;50.32;97636.41;29371;239;64004;-65
2022/03/02 00:15:06;;;;;;;0.60;0.60;;;;;;;0.47;50.32;97631.06;29371;244;64009;-63
2022/03/02 00:15:37;;;;;;;0.68;0.68;;;;;;;0.48;50.39;97631.88;29373;232;63005;-64
2022/03/02 00:16:08;;;;;;;0.70;0.70;;;;;;;0.49;50.27;97634.34;29373;205;63009;-64
2022/03/02 00:16:40;;;;;;;0.60;0.60;;;;;;;0.50;50.28;97627.97;29373;265;63008;-63
2022/03/02 00:17:12;;;;;;;0.60;0.60;;;;;;;0.52;50.30;97622.41;29373;266;63018;-62
2022/03/02 00:17:43;;;;;;;0.50;0.50;;;;;;;0.52;50.21;97622.41;29373;224;63005;-64
2022/03/02 00:18:16;;;;;;;0.60;0.60;;;;;;;0.53;50.16;97624.06;29373;347;63009;-64
2022/03/02 00:18:48;;;;;;;0.60;0.60;;;;;;;0.53;50.32;97618.72;29373;202;63004;-65
2022/03/02 00:19:19;;;;;;;0.60;0.60;;;;;;;0.55;49.98;97611.31;29373;236;63009;-64
2022/03/02 00:19:51;;;;;;;0.60;0.60;;;;;;;0.56;50.19;97618.31;29371;204;64004;-64
2022/03/02 00:20:23;;;;;;;0.60;0.60;;;;;;;0.55;50.27;97620.16;29371;305;64009;-65
2022/03/02 00:20:55;;;;;;;0.60;0.60;;;;;;;0.55;49.94;97606.78;29373;230;63004;-62
2022/03/02 00:21:27;;;;;;;0.60;0.60;;;;;;;0.56;49.92;97613.78;29373;225;63008;-66
2022/03/02 00:21:58;;;;;;;0.95;0.95;;;;;;;0.56;49.91;97597.75;29373;287;63004;-62
2022/03/02 00:22:30;;;;;;;0.60;0.60;;;;;;;0.57;50.06;97599.41;29373;339;63025;-63
2022/03/02 00:23:01;;;;;;;0.60;0.60;;;;;;;0.59;50.09;97600.00;29373;246;63005;-62
2022/03/02 00:23:33;;;;;;;0.60;0.60;;;;;;;0.60;49.96;97598.16;29373;259;63009;-63
2022/03/02 00:24:06;;;;;;;0.60;0.60;;;;;;;0.60;50.04;97595.47;29373;218;63005;-63
2022/03/02 00:24:37;;;;;;;0.60;0.60;;;;;;;0.60;50.16;97604.31;29371;223;64009;-61
2022/03/02 00:25:09;;;;;;;0.60;0.60;;;;;;;0.60;50.20;97598.97;29373;204;63005;-68
2022/03/02 00:25:40;;;;;;;0.60;0.60;;;;;;;0.59;49.83;97607.19;29373;218;63009;-66
2022/03/02 00:26:12;;;;;;;0.60;0.60;;;;;;;0.59;50.11;97601.84;29373;221;63004;-63
2022/03/02 00:26:43;;;;;;;0.60;0.60;;;;;;;0.59;49.87;97605.34;29373;242;63009;-68
2022/03/02 00:27:14;;;;;;;0.68;0.68;;;;;;;0.60;49.94;97604.31;29373;208;63004;-63
2022/03/02 00:27:46;;;;;;;0.60;0.60;;;;;;;0.62;49.87;97607.59;29373;202;63009;-65
2022/03/02 00:28:18;;;;;;;0.60;0.60;;;;;;;0.64;49.88;97605.53;29374;247;63004;-64
2022/03/02 00:28:50;;;;;;;0.60;0.60;;;;;;;0.66;49.48;97603.47;29374;211;63009;-64
2022/03/02 00:29:22;;;;;;;0.90;0.90;;;;;;;0.68;49.75;97610.47;29374;208;63005;-65
2022/03/02 00:29:53;;;;;;;0.82;0.82;;;;;;;0.69;49.33;97612.09;29372;362;64009;-62
2022/03/02 00:30:28;;;;;;;0.50;0.50;;;;;;;0.70;49.51;97606.50;29374;312;63005;-63
2022/03/02 00:30:59;;;;;;;0.60;0.60;;;;;;;0.70;49.37;97603.03;29374;197;63009;-62
2022/03/02 00:31:32;;;;;;;0.65;0.65;;;;;;;0.70;49.52;97601.16;29374;207;63000;-63
2022/03/02 00:32:04;;;;;;;0.85;0.85;;;;;;;0.74;49.27;97599.72;29374;209;63009;-64
2022/03/02 00:32:37;;;;;;;0.60;0.60;;;;;;;0.75;49.12;97600.53;29374;327;63005;-65
2022/03/02 00:33:11;;;;;;;0.60;0.60;;;;;;;0.76;49.38;97602.19;29374;256;63009;-62
2022/03/02 00:33:47;;;;;;;0.77;0.77;;;;;;;0.78;49.35;97595.59;29374;222;63004;-62
2022/03/02 00:34:18;;;;;;;0.60;0.60;;;;;;;0.79;49.14;97601.75;29374;208;63009;-65
2022/03/02 00:34:50;;;;;;;0.60;0.60;;;;;;;0.77;49.19;97593.13;29372;270;64004;-62
2022/03/02 00:35:22;;;;;;;0.60;0.60;;;;;;;0.75;49.07;97593.34;29372;229;64009;-62
2022/03/02 00:35:53;;;;;;;0.60;0.60;;;;;;;0.76;49.13;97589.62;29372;218;64004;-62
2022/03/02 00:36:24;;;;;;;0.60;0.60;;;;;;;0.76;49.17;97596.84;29374;214;63009;-66
2022/03/02 00:36:56;;;;;;;0.60;0.60;;;;;;;0.76;49.16;97594.97;29374;205;63005;-63
2022/03/02 00:37:27;;;;;;;0.60;0.60;;;;;;;0.75;49.03;97589.84;29374;298;63009;-64
2022/03/02 00:38:02;;;;;;;0.60;0.60;;;;;;;0.74;49.30;97583.69;29374;215;63011;-63
2022/03/02 00:38:34;;;;;;;0.68;0.68;;;;;;;0.75;49.42;97596.00;29372;305;64009;-62
2022/03/02 00:39:07;;;;;;;0.60;0.60;;;;;;;0.76;49.30;97591.50;29372;224;64005;-63
2022/03/02 00:39:40;;;;;;;0.60;0.60;;;;;;;0.77;49.35;97593.13;29374;206;63009;-64
2022/03/02 00:40:29;;;;;;;0.60;0.60;;;;;;;0.75;49.16;97593.34;29374;244;63005;-65
2022/03/02 00:41:07;;;;;;;0.60;0.60;;;;;;;0.77;49.30;97598.47;29373;196;64009;-64
2022/03/02 00:41:39;;;;;;;0.70;0.70;;;;;;;0.74;49.31;97596.22;29373;329;64004;-64
2022/03/02 00:42:11;;;;;;;0.60;0.60;;;;;;;0.73;49.51;97597.25;29372;196;64009;-63
2022/03/02 00:42:45;;;;;;;0.60;0.60;;;;;;;0.73;49.42;97599.94;29374;196;63004;-63
2022/03/02 00:43:18;;;;;;;0.60;0.60;;;;;;;0.71;49.50;97604.66;29374;387;63008;-64
2022/03/02 00:43:50;;;;;;;0.60;0.60;;;;;;;0.69;49.58;97612.91;29374;302;63004;-64
2022/03/02 00:44:23;;;;;;;0.60;0.60;;;;;;;0.68;49.49;97605.13;29374;315;63009;-65
2022/03/02 00:44:56;;;;;;;0.60;0.60;;;;;;;0.68;49.72;97605.94;29374;199;63005;-63
2022/03/02 00:45:32;;;;;;;0.60;0.60;;;;;;;0.68;49.62;97605.94;29374;197;63009;-64
2022/03/02 00:46:08;;;;;;;0.60;0.60;;;;;;;0.68;50.00;97605.13;29374;228;63005;-65
2022/03/02 00:46:41;;;;;;;0.60;0.60;;;;;;;0.67;50.09;97604.28;29374;280;63009;-64
2022/03/02 00:47:13;;;;;;;0.60;0.60;;;;;;;0.65;50.60;97611.69;29372;244;64005;-63
2022/03/02 00:47:45;;;;;;;0.60;0.60;;;;;;;0.62;50.65;97615.59;29374;197;63009;-64
2022/03/02 00:48:18;;;;;;;4.00;3.85;;;;;;;0.61;50.64;97613.97;29374;217;63004;-65
2022/03/02 00:48:50;;;;;;;0.60;0.60;;;;;;;0.61;50.46;97611.28;29374;314;63009;-64
2022/03/02 00:49:26;;;;;;;0.60;0.60;;;;;;;0.60;50.51;97604.31;29374;246;63004;-64
2022/03/02 00:49:59;;;;;;;0.60;0.60;;;;;;;0.62;50.15;97607.59;29374;268;63009;-66
2022/03/02 00:50:31;;;;;;;0.60;0.60;;;;;;;0.63;50.24;97608.41;29374;197;63004;-68
2022/03/02 00:51:03;;;;;;;0.60;0.60;;;;;;;0.63;50.21;97609.25;29374;196;63008;-63
2022/03/02 00:51:35;;;;;;;0.60;0.60;;;;;;;0.65;50.29;97604.50;29374;300;63005;-63
2022/03/02 00:52:10;;;;;;;0.60;0.60;;;;;;;0.70;49.77;97605.69;29372;232;64009;-64
2022/03/02 00:52:43;;;;;;;0.60;0.60;;;;;;;0.73;49.79;97603.41;29373;227;64005;-63
2022/03/02 00:53:15;;;;;;;0.60;0.60;;;;;;;0.74;49.57;97604.22;29374;214;63009;-63
2022/03/02 00:53:48;;;;;;;0.60;0.60;;;;;;;0.75;49.80;97600.53;29374;245;63009;-65
2022/03/02 00:54:20;;;;;;;0.60;0.60;;;;;;;0.77;49.47;97603.81;29374;205;63009;-64
2022/03/02 00:54:52;;;;;;;0.60;0.60;;;;;;;0.77;49.49;97598.47;29374;291;63005;-63
2022/03/02 00:55:24;;;;;;;0.73;0.73;;;;;;;0.78;49.75;97602.78;29374;264;63009;-63
2022/03/02 00:55:58;;;;;;;0.60;0.60;;;;;;;0.78;49.64;97605.44;29374;208;63004;-64
2022/03/02 00:56:29;;;;;;;0.57;0.57;;;;;;;0.78;49.58;97600.94;29374;324;63009;-63
2022/03/02 00:57:01;;;;;;;0.60;0.60;;;;;;;0.79;49.58;97602.56;29374;208;63004;-63
2022/03/02 00:57:33;;;;;;;1.08;1.08;;;;;;;0.81;49.61;97599.69;29372;278;64009;-63
2022/03/02 00:58:05;;;;;;;0.60;0.60;;;;;;;0.86;48.85;97599.87;29374;304;63004;-64
2022/03/02 00:58:37;;;;;;;0.60;0.60;;;;;;;0.87;49.14;97601.50;29374;321;63008;-62
2022/03/02 00:59:09;;;;;;;0.60;0.60;;;;;;;0.86;49.09;97602.53;29374;226;63005;-62
2022/03/02 00:59:41;;;;;;;0.60;0.60;;;;;;;0.86;49.30;97591.84;29372;236;64009;-65
2022/03/02 01:00:19;;;;;;;0.60;0.60;;;;;;;0.84;49.06;97593.91;29374;375;63021;-63
2022/03/02 01:00:51;;;;;;;0.60;0.60;;;;;;;0.85;49.12;97590.22;29374;343;63009;-65
2022/03/02 01:01:24;;;;;;;0.60;0.60;;;;;;;0.86;48.98;97583.84;29374;348;63005;-63
2022/03/02 01:01:55;;;;;;;0.60;0.60;;;;;;;0.85;49.06;97583.03;29374;243;63009;-64
2022/03/02 01:02:27;;;;;;;0.60;0.60;;;;;;;0.86;49.38;97583.84;29374;209;63005;-67
2022/03/02 01:02:58;;;;;;;0.80;0.80;;;;;;;0.87;49.01;97582.81;29374;294;63009;-66
2022/03/02 01:03:30;;;;;;;0.60;0.60;;;;;;;0.89;48.90;97580.75;29373;312;64004;-62
2022/03/02 01:04:09;;;;;;;0.60;0.60;;;;;;;0.89;49.15;97580.75;29375;289;63009;-64
2022/03/02 01:04:45;;;;;;;0.60;0.60;;;;;;;0.89;48.85;97580.75;29375;211;63000;-62
2022/03/02 01:05:16;;;;;;;0.60;0.60;;;;;;;0.91;49.06;97584.03;29374;309;64009;-65
2022/03/02 01:05:50;;;;;;;0.60;0.60;;;;;;;0.92;48.67;97577.63;29375;204;63004;-64
2022/03/02 01:06:21;;;;;;;0.60;0.60;;;;;;;0.90;49.01;97577.03;29374;331;63008;-66
2022/03/02 01:06:52;;;;;;;0.60;0.60;;;;;;;0.90;48.84;97580.53;29373;278;64005;-64
2022/03/02 01:07:23;;;;;;;1.05;1.05;;;;;;;0.90;48.85;97582.38;29375;351;63009;-62
2022/03/02 01:07:55;;;;;;;0.60;0.60;;;;;;;0.90;49.04;97577.03;29374;302;64005;-63
2022/03/02 01:08:27;;;;;;;0.60;0.60;;;;;;;0.89;49.08;97576.22;29375;272;63011;-63
2022/03/02 01:09:01;;;;;;;0.60;0.60;;;;;;;0.87;49.10;97578.28;29375;308;63005;-65
2022/03/02 01:09:34;;;;;;;0.60;0.60;;;;;;;0.84;49.18;97577.87;29373;337;64009;-64
2022/03/02 01:10:12;;;;;;;0.60;0.60;;;;;;;0.81;49.39;97583.66;29375;322;63005;-64
2022/03/02 01:10:44;;;;;;;0.60;0.60;;;;;;;0.80;49.37;97582.00;29375;229;63009;-64
2022/03/02 01:11:17;;;;;;;0.60;0.60;;;;;;;0.77;49.58;97585.13;29375;245;63004;-65
2022/03/02 01:11:49;;;;;;;0.60;0.60;;;;;;;0.75;49.50;97589.84;29375;202;63018;-65
2022/03/02 01:12:29;;;;;;;0.60;0.60;;;;;;;0.72;50.52;97587.59;29376;216;63004;-64
2022/03/02 01:13:00;;;;;;;0.60;0.60;;;;;;;0.68;50.65;97589.09;29376;196;63009;-64
2022/03/02 01:13:32;;;;;;;0.60;0.60;;;;;;;0.66;50.57;97594.63;29376;204;63004;-66
2022/03/02 01:14:06;;;;;;;0.60;0.60;;;;;;;0.62;50.44;97586.22;29376;218;63008;-66
2022/03/02 01:14:42;;;;;;;0.60;0.60;;;;;;;0.62;50.33;97586.22;29374;336;64005;-63
2022/03/02 01:15:13;;;;;;;0.60;0.60;;;;;;;0.62;50.34;97585.41;29376;218;63009;-63
2022/03/02 01:15:48;;;;;;;0.60;0.60;;;;;;;0.61;50.45;97584.59;29376;295;63005;-62
2022/03/02 01:16:19;;;;;;;0.60;0.60;;;;;;;0.60;50.24;97585.63;29376;238;63009;-63
2022/03/02 01:16:54;;;;;;;0.60;0.60;;;;;;;0.60;50.29;97588.28;29376;358;63005;-64
2022/03/02 01:17:26;;;;;;;0.60;0.60;;;;;;;0.59;50.45;97581.31;29376;197;63009;-64
2022/03/02 01:17:57;;;;;;;0.60;0.60;;;;;;;0.58;50.24;97586.88;29376;203;63006;-64
2022/03/02 01:18:34;;;;;;;0.60;0.60;;;;;;;0.58;50.50;97584.19;29376;196;63009;-64
2022/03/02 01:19:05;;;;;;;0.60;0.60;;;;;;;0.57;50.27;97588.72;29376;206;63004;-62
2022/03/02 01:19:39;;;;;;;0.60;0.60;;;;;;;0.58;50.50;97585.00;29374;202;64009;-65
2022/03/02 01:20:12;;;;;;;0.60;0.60;;;;;;;0.56;50.25;97587.06;29374;263;64004;-63
2022/03/02 01:20:44;;;;;;;0.60;0.60;;;;;;;0.56;50.26;97591.59;29376;232;63008;-66
2022/03/02 01:21:19;;;;;;;0.60;0.60;;;;;;;0.55;50.53;97589.97;29376;200;63005;-63
2022/03/02 01:21:59;;;;;;;0.60;0.60;;;;;;;0.55;50.59;97589.97;29376;355;63009;-65
2022/03/02 01:22:31;;;;;;;0.60;0.60;;;;;;;0.53;50.53;97582.16;29376;238;63005;-65
2022/03/02 01:23:02;;;;;;;0.60;0.60;;;;;;;0.53;50.54;97584.81;29376;235;63009;-63
2022/03/02 01:23:37;;;;;;;0.60;0.60;;;;;;;0.52;50.81;97583.19;29376;197;63005;-64
2022/03/02 01:24:09;;;;;;;3.33;3.22;;;;;;;0.54;50.54;97589.12;29376;299;63009;-64
2022/03/02 01:24:41;;;;;;;0.60;0.60;;;;;;;0.55;50.57;97585.44;29374;242;64005;-64
2022/03/02 01:25:15;;;;;;;0.60;0.60;;;;;;;0.54;50.63;97582.97;29374;284;64009;-63
2022/03/02 01:25:46;;;;;;;0.60;0.60;;;;;;;0.52;50.71;97580.50;29375;207;63004;-65
2022/03/02 01:26:18;;;;;;;0.60;0.60;;;;;;;0.50;50.61;97581.75;29375;373;63009;-64
2022/03/02 01:26:50;;;;;;;0.60;0.60;;;;;;;0.49;50.54;97583.59;29375;213;63004;-62
2022/03/02 01:27:25;;;;;;;0.60;0.60;;;;;;;0.49;50.56;97577.44;29375;232;63009;-63
2022/03/02 01:27:57;;;;;;;0.60;0.60;;;;;;;0.47;50.74;97577.66;29375;353;63004;-64
2022/03/02 01:28:28;;;;;;;0.60;0.60;;;;;;;0.47;50.90;97583.00;29373;325;64009;-62
2022/03/02 01:29:00;;;;;;;0.60;0.60;;;;;;;0.48;50.81;97589.16;29375;220;63005;-62
2022/03/02 01:29:34;;;;;;;0.60;0.60;;;;;;;0.48;50.76;97579.28;29375;332;63009;-64
2022/03/02 01:30:08;;;;;;;0.60;0.60;;;;;;;0.50;50.92;97582.56;29375;234;63005;-64
2022/03/02 01:30:40;;;;;;;0.60;0.60;;;;;;;0.50;50.45;97582.56;29375;285;63009;-63
2022/03/02 01:31:11;;;;;;;0.60;0.60;;;;;;;0.51;50.74;97575.38;29375;214;63005;-62
2022/03/02 01:31:43;;;;;;;0.60;0.60;;;;;;;0.51;50.52;97573.53;29375;211;63009;-64
2022/03/02 01:32:14;;;;;;;0.60;0.60;;;;;;;0.52;50.75;97580.50;29376;213;63005;-63
2022/03/02 01:32:47;;;;;;;0.60;0.60;;;;;;;0.51;50.58;97576.22;29375;208;63009;-62
2022/03/02 01:33:21;;;;;;;0.60;0.60;;;;;;;0.50;50.66;97576.41;29375;244;63004;-64
2022/03/02 01:33:56;;;;;;;0.60;0.60;;;;;;;0.49;50.80;97574.78;29374;384;64009;-64
2022/03/02 01:34:28;;;;;;;0.60;0.60;;;;;;;0.47;50.75;97569.66;29375;354;63004;-65
2022/03/02 01:34:59;;;;;;;0.60;0.60;;;;;;;0.46;51.37;97580.53;29375;319;63009;-64
2022/03/02 01:35:30;;;;;;;0.60;0.60;;;;;;;0.43;52.31;97587.13;29375;231;63004;-65
2022/03/02 01:36:02;;;;;;;0.60;0.60;;;;;;;0.40;52.53;97598.22;29375;198;63009;-64
2022/03/02 01:36:33;;;;;;;0.70;0.70;;;;;;;0.37;52.28;97577.28;29373;199;64005;-66
2022/03/02 01:37:07;;;;;;;0.60;0.60;;;;;;;0.36;52.05;97580.16;29375;309;63009;-65
2022/03/02 01:37:39;;;;;;;0.60;0.60;;;;;;;0.33;52.33;97586.78;29375;233;63005;-65
2022/03/02 01:38:11;;;;;;;0.60;0.60;;;;;;;0.31;53.04;97588.81;29375;334;63009;-65
2022/03/02 01:38:44;;;;;;;0.60;0.60;;;;;;;0.28;52.92;97587.41;29375;302;63005;-65
2022/03/02 01:39:16;;;;;;;0.60;0.60;;;;;;;0.26;53.14;97585.97;29375;354;63009;-64
2022/03/02 01:39:48;;;;;;;0.60;0.60;;;;;;;0.23;54.06;97586.38;29375;197;63005;-64
2022/03/02 01:40:20;;;;;;;0.60;0.60;;;;;;;0.19;53.63;97595.84;29375;209;63009;-65
2022/03/02 01:40:51;;;;;;;1.58;1.58;;;;;;;0.15;53.45;97590.09;29373;199;64004;-65
2022/03/02 01:41:25;;;;;;;0.60;0.60;;;;;;;0.14;53.10;97584.97;29375;219;63009;-65
2022/03/02 01:41:57;;;;;;;0.60;0.60;;;;;;;0.13;53.34;97586.00;29373;198;64004;-67
2022/03/02 01:42:28;;;;;;;0.60;0.60;;;;;;;0.12;53.29;97579.00;29375;202;63009;-63
2022/03/02 01:43:03;;;;;;;0.50;0.50;;;;;;;0.11;53.27;97580.88;29375;202;63004;-65
2022/03/02 01:43:34;;;;;;;0.70;0.70;;;;;;;0.10;52.87;97579.22;29375;220;63009;-63
2022/03/02 01:44:06;;;;;;;0.60;0.60;;;;;;;0.12;52.86;97579.84;29375;197;63005;-64
2022/03/02 01:44:38;;;;;;;0.60;0.60;;;;;;;0.11;52.70;97577.37;29375;273;63009;-64
2022/03/02 01:45:12;;;;;;;0.60;0.60;;;;;;;0.12;52.97;97585.16;29375;238;63005;-64
2022/03/02 01:45:45;;;;;;;0.60;0.60;;;;;;;0.13;52.54;97575.31;29375;218;63009;-64
2022/03/02 01:46:18;;;;;;;0.95;0.95;;;;;;;0.13;52.48;97578.00;29373;261;64005;-65
2022/03/02 01:46:50;;;;;;;0.60;0.60;;;;;;;0.14;52.49;97572.44;29375;223;63024;-64
2022/03/02 01:47:22;;;;;;;0.60;0.60;;;;;;;0.15;52.49;97574.09;29373;372;64005;-64
2022/03/02 01:47:53;;;;;;;0.60;0.60;;;;;;;0.16;52.75;97569.56;29375;370;63009;-65
2022/03/02 01:48:24;;;;;;;0.60;0.60;;;;;;;0.16;52.51;97574.91;29375;223;63004;-66
2022/03/02 01:48:57;;;;;;;0.60;0.60;;;;;;;0.16;52.42;97569.56;29375;198;63009;-64
2022/03/02 01:49:28;;;;;;;0.60;0.60;;;;;;;0.16;52.77;97574.91;29375;339;63004;-66
2022/03/02 01:50:00;;;;;;;0.65;0.65;;;;;;;0.16;52.47;97569.56;29375;308;63009;-66
2022/03/02 01:50:32;;;;;;;0.60;0.60;;;;;;;0.15;52.92;97573.25;29375;198;63004;-63
2022/03/02 01:51:04;;;;;;;0.60;0.60;;;;;;;0.15;52.65;97567.94;29375;242;63009;-64
2022/03/02 01:51:36;;;;;;;0.60;0.60;;;;;;;0.16;52.59;97569.56;29375;219;63005;-64
2022/03/02 01:52:07;;;;;;;0.60;0.60;;;;;;;0.17;52.76;97566.69;29373;211;64009;-64
2022/03/02 01:52:39;;;;;;;0.60;0.60;;;;;;;0.16;52.60;97559.72;29375;330;63005;-65
2022/03/02 01:53:12;;;;;;;0.60;0.60;;;;;;;0.18;52.35;97562.16;29375;220;63022;-64
2022/03/02 01:53:45;;;;;;;0.60;0.60;;;;;;;0.18;52.32;97556.84;29375;259;63005;-66
2022/03/02 01:54:18;;;;;;;0.60;0.60;;;;;;;0.19;52.22;97559.28;29373;334;64009;-63
2022/03/02 01:54:51;;;;;;;0.60;0.60;;;;;;;0.21;52.35;97562.56;29375;205;63005;-64
2022/03/02 01:55:27;;;;;;;0.70;0.70;;;;;;;0.25;51.93;97557.62;29375;198;63009;-66
2022/03/02 01:55:59;;;;;;;0.60;0.60;;;;;;;0.26;52.11;97559.28;29375;219;63004;-65
2022/03/02 01:56:32;;;;;;;0.60;0.60;;;;;;;0.27;51.89;97555.56;29375;221;63009;-64
2022/03/02 01:57:04;;;;;;;0.60;0.60;;;;;;;0.29;51.56;97564.19;29375;196;63004;-64
2022/03/02 01:57:41;;;;;;;0.60;0.60;;;;;;;0.30;51.45;97555.97;29375;296;63009;-64
2022/03/02 01:58:12;;;;;;;0.50;0.50;;;;;;;0.31;51.45;97556.78;29373;344;64004;-63
2022/03/02 01:58:45;;;;;;;0.60;0.60;;;;;;;0.30;51.65;97560.50;29375;226;63009;-65
2022/03/02 01:59:22;;;;;;;0.60;0.60;;;;;;;0.29;51.48;97553.50;29375;199;63005;-65
2022/03/02 01:59:55;;;;;;;0.60;0.60;;;;;;;0.28;51.60;97557.22;29375;199;63015;-65
2022/03/02 02:00:28;;;;;;;0.60;0.60;;;;;;;0.27;51.40;97555.56;29375;219;63005;-67
2022/03/02 02:01:03;;;;;;;0.60;0.60;;;;;;;0.28;51.63;97552.69;29375;202;63018;-64
2022/03/02 02:01:35;;;;;;;0.60;0.60;;;;;;;0.28;51.77;97551.88;29373;230;64005;-63
2022/03/02 02:02:06;;;;;;;0.60;0.60;;;;;;;0.27;51.62;97558.25;29375;202;63009;-64
2022/03/02 02:02:38;;;;;;;0.60;0.60;;;;;;;0.26;52.11;97554.75;29375;216;63005;-63
2022/03/02 02:03:09;;;;;;;0.60;0.60;;;;;;;0.24;51.74;97553.31;29375;197;63009;-64
2022/03/02 02:03:41;;;;;;;0.60;0.60;;;;;;;0.24;52.18;97556.00;29375;281;63004;-65
2022/03/02 02:04:12;;;;;;;0.60;0.60;;;;;;;0.23;52.06;97551.69;29375;247;63009;-62
2022/03/02 02:04:44;;;;;;;0.60;0.60;;;;;;;0.22;51.87;97547.37;29373;196;64004;-64
2022/03/02 02:05:17;;;;;;;0.60;0.60;;;;;;;0.20;52.06;97549.44;29375;315;63009;-63
2022/03/02 02:05:49;;;;;;;0.50;0.50;;;;;;;0.19;52.31;97550.47;29375;302;63004;-65
2022/03/02 02:06:22;;;;;;;0.60;0.60;;;;;;;0.19;51.93;97553.13;29375;281;63009;-63
2022/03/02 02:06:53;;;;;;;0.60;0.60;;;;;;;0.18;52.34;97546.97;29373;209;64005;-64
2022/03/02 02:07:26;;;;;;;0.60;0.60;;;;;;;0.17;52.02;97545.34;29375;197;63009;-64
2022/03/02 02:08:01;;;;;;;0.60;0.60;;;;;;;0.18;52.08;97543.50;29375;209;63005;-65
2022/03/02 02:08:32;;;;;;;0.60;0.60;;;;;;;0.20;51.89;97541.44;29375;203;63009;-65
2022/03/02 02:09:07;;;;;;;0.60;0.60;;;;;;;0.22;51.81;97539.37;29375;208;63005;-62
2022/03/02 02:09:41;;;;;;;0.60;0.60;;;;;;;0.23;51.75;97538.34;29375;202;63009;-62
2022/03/02 02:10:14;;;;;;;0.60;0.60;;;;;;;0.24;52.05;97534.66;29373;203;64005;-66
2022/03/02 02:10:45;;;;;;;0.60;0.60;;;;;;;0.25;51.76;97533.63;29375;227;63009;-63
2022/03/02 02:11:17;;;;;;;0.60;0.60;;;;;;;0.25;51.84;97533.63;29375;298;63004;-64
2022/03/02 02:11:48;;;;;;;0.60;0.60;;;;;;;0.25;51.73;97525.59;29375;198;63009;-63
2022/03/02 02:12:19;;;;;;;0.60;0.60;;;;;;;0.26;51.56;97532.59;29375;204;63008;-64
2022/03/02 02:12:50;;;;;;;0.60;0.60;;;;;;;0.27;51.55;97528.88;29375;206;63009;-65
2022/03/02 02:13:27;;;;;;;0.60;0.60;;;;;;;0.29;51.52;97527.66;29375;342;63004;-65
2022/03/02 02:14:00;;;;;;;0.60;0.60;;;;;;;0.30;51.35;97523.13;29375;231;63009;-66
2022/03/02 02:14:31;;;;;;;0.60;0.60;;;;;;;0.33;51.55;97520.84;29375;206;63005;-65
2022/03/02 02:15:04;;;;;;;0.60;0.60;;;;;;;0.33;51.13;97523.53;29375;247;63009;-63
2022/03/02 02:15:36;;;;;;;0.60;0.60;;;;;;;0.34;51.08;97521.69;29373;252;64005;-62
2022/03/02 02:16:25;;;;;;;0.60;0.60;;;;;;;0.34;51.16;97519.00;29375;211;63017;-63
2022/03/02 02:16:59;;;;;;;0.60;0.60;;;;;;;0.33;51.15;97514.69;29375;209;63005;-67
2022/03/02 02:17:33;;;;;;;0.60;0.60;;;;;;;0.33;50.99;97514.69;29375;283;63016;-65
2022/03/02 02:18:07;;;;;;;0.60;0.60;;;;;;;0.33;51.32;97512.03;29375;211;63004;-63
2022/03/02 02:18:40;;;;;;;0.60;0.60;;;;;;;0.32;51.03;97516.53;29372;256;64009;-65
2022/03/02 02:19:11;;;;;;;0.60;0.60;;;;;;;0.32;51.23;97510.38;29373;230;63004;-63
2022/03/02 02:19:42;;;;;;;0.60;0.60;;;;;;;0.31;51.27;97514.91;29373;202;63008;-64
2022/03/02 02:20:14;;;;;;;0.60;0.60;;;;;;;0.32;51.34;97516.53;29373;204;63004;-64
2022/03/02 02:20:46;;;;;;;0.60;0.60;;;;;;;0.32;51.12;97513.06;29373;208;63008;-63
2022/03/02 02:21:19;;;;;;;0.60;0.60;;;;;;;0.32;51.02;97510.38;29373;227;63005;-62
2022/03/02 02:21:50;;;;;;;0.60;0.60;;;;;;;0.33;51.03;97506.69;29373;216;63009;-65
2022/03/02 02:22:24;;;;;;;0.60;0.60;;;;;;;0.33;50.96;97509.34;29373;203;63005;-66
2022/03/02 02:22:56;;;;;;;0.60;0.60;;;;;;;0.33;51.05;97512.03;29374;218;63009;-65
2022/03/02 02:23:27;;;;;;;0.60;0.60;;;;;;;0.33;50.95;97512.03;29373;202;63005;-61
2022/03/02 02:23:59;;;;;;;0.60;0.60;;;;;;;0.34;51.31;97513.66;29371;205;64009;-65
2022/03/02 02:24:39;;;;;;;0.60;0.60;;;;;;;0.32;51.12;97505.03;29395;197;63009;-63
2022/03/02 02:25:11;;;;;;;0.60;0.60;;;;;;;0.31;51.04;97509.56;29395;202;63009;-64
2022/03/02 02:25:42;;;;;;;0.60;0.60;;;;;;;0.31;51.29;97511.41;29373;255;63004;-65
2022/03/02 02:26:14;;;;;;;0.60;0.60;;;;;;;0.30;51.16;97507.13;29373;205;63009;-63
2022/03/02 02:26:46;;;;;;;0.60;0.60;;;;;;;0.28;51.33;97507.31;29373;202;63009;-64
2022/03/02 02:27:32;;;;;;;0.60;0.60;;;;;;;0.26;51.50;97508.56;29373;300;63008;-64
2022/03/02 02:28:04;;;;;;;0.60;0.60;;;;;;;0.25;51.66;97505.06;29373;242;63005;-64
2022/03/02 02:28:39;;;;;;;6.12;5.50;;;;;;;0.25;51.24;97512.25;29373;327;63009;-64
2022/03/02 02:29:12;;;;;;;0.60;0.60;;;;;;;0.25;51.27;97498.91;29371;332;64005;-64
2022/03/02 02:29:44;;;;;;;0.57;0.57;;;;;;;0.26;51.37;97508.56;29373;211;63009;-63
2022/03/02 02:30:17;;;;;;;0.60;0.60;;;;;;;0.24;51.14;97507.94;29373;207;63005;-63
2022/03/02 02:30:50;;;;;;;0.60;0.60;;;;;;;0.22;51.23;97504.69;29373;213;63009;-62
2022/03/02 02:31:22;;;;;;;0.60;0.60;;;;;;;0.21;51.24;97500.37;29373;199;63005;-65
2022/03/02 02:31:57;;;;;;;0.60;0.60;;;;;;;0.19;52.05;97510.44;29373;354;63009;-64
2022/03/02 02:32:32;;;;;;;0.60;0.60;;;;;;;0.13;52.67;97506.75;29373;224;63010;-64
2022/03/02 02:33:05;;;;;;;0.60;0.60;;;;;;;0.09;52.39;97504.72;29373;197;63009;-63
2022/03/02 02:33:36;;;;;;;0.70;0.70;;;;;;;0.09;52.42;97504.72;29373;228;63004;-62
2022/03/02 02:34:07;;;;;;;0.60;0.60;;;;;;;0.09;52.14;97510.06;29373;218;63009;-62
2022/03/02 02:34:40;;;;;;;0.60;0.60;;;;;;;0.09;52.21;97504.72;29371;202;64004;-65
2022/03/02 02:35:12;;;;;;;0.60;0.60;;;;;;;0.08;52.19;97503.09;29373;218;63008;-64
2022/03/02 02:35:44;;;;;;;0.60;0.60;;;;;;;0.07;52.19;97502.25;29373;199;63005;-62
2022/03/02 02:36:16;;;;;;;0.60;0.60;;;;;;;0.05;52.24;97498.16;29372;219;63009;-62
2022/03/02 02:36:47;;;;;;;0.60;0.60;;;;;;;0.02;52.59;97501.25;29373;210;63005;-63
2022/03/02 02:37:20;;;;;;;0.60;0.60;;;;;;;0.01;52.59;97500.44;29373;198;63009;-61
2022/03/02 02:37:52;;;;;;;0.60;0.60;;;;;;;-0.03;52.79;97500.06;29373;246;63014;-63